sensor_id;sensor_type;location;lat;lon;timestamp;P1;P2;P0
55441;PMS5003;41313;58.740;50.174;2022-08-02T00:00:24;7.50;7.50;4.50
55441;PMS5003;41313;58.740;50.174;2022-08-02T00:05:26;8.00;8.00;5.50
55441;PMS5003;41313;58.740;50.174;2022-08-02T00:10:28;8.25;8.25;5.75
55441;PMS5003;41313;58.740;50.174;2022-08-02T00:15:29;9.20;9.20;5.40
55441;PMS5003;41313;58.740;50.174;2022-08-02T00:20:31;9.00;9.00;6.25
55441;PMS5003;41313;58.740;50.174;2022-08-02T00:25:32;7.50;7.50;5.50
55441;PMS5003;41313;58.740;50.174;2022-08-02T00:30:34;4.25;4.25;3.50
55441;PMS5003;41313;58.740;50.174;2022-08-02T00:35:36;7.75;7.75;4.25
55441;PMS5003;41313;58.740;50.174;2022-08-02T00:40:38;7.50;7.50;5.75
55441;PMS5003;41313;58.740;50.174;2022-08-02T00:45:40;9.75;9.75;7.50
55441;PMS5003;41313;58.740;50.174;2022-08-02T00:50:42;8.75;8.75;7.75
55441;PMS5003;41313;58.740;50.174;2022-08-02T00:55:43;7.25;7.25;5.00
55441;PMS5003;41313;58.740;50.174;2022-08-02T01:00:45;5.50;5.50;2.75
55441;PMS5003;41313;58.740;50.174;2022-08-02T01:05:47;9.00;9.00;4.50
55441;PMS5003;41313;58.740;50.174;2022-08-02T01:10:48;7.75;7.75;5.75
55441;PMS5003;41313;58.740;50.174;2022-08-02T01:15:54;9.25;9.25;8.00
55441;PMS5003;41313;58.740;50.174;2022-08-02T01:21:10;6.25;6.25;5.50
55441;PMS5003;41313;58.740;50.174;2022-08-02T01:31:49;6.75;6.75;4.75
55441;PMS5003;41313;58.740;50.174;2022-08-02T01:42:21;4.50;4.50;2.00
55441;PMS5003;41313;58.740;50.174;2022-08-02T01:47:29;8.25;8.25;6.25
55441;PMS5003;41313;58.740;50.174;2022-08-02T01:52:34;16.25;16.25;10.75
55441;PMS5003;41313;58.740;50.174;2022-08-02T01:57:42;58.33;48.67;30.67
55441;PMS5003;41313;58.740;50.174;2022-08-02T02:02:57;32.67;32.67;20.33
55441;PMS5003;41313;58.740;50.174;2022-08-02T02:08:01;27.67;27.33;18.33
55441;PMS5003;41313;58.740;50.174;2022-08-02T02:13:10;20.75;20.75;13.50
55441;PMS5003;41313;58.740;50.174;2022-08-02T02:18:16;14.50;14.50;7.25
55441;PMS5003;41313;58.740;50.174;2022-08-02T02:23:21;14.50;14.50;9.75
55441;PMS5003;41313;58.740;50.174;2022-08-02T02:28:26;11.00;11.00;7.25
55441;PMS5003;41313;58.740;50.174;2022-08-02T02:33:31;15.25;15.25;10.00
55441;PMS5003;41313;58.740;50.174;2022-08-02T02:38:35;15.50;15.50;11.50
55441;PMS5003;41313;58.740;50.174;2022-08-02T02:43:38;13.25;13.25;9.75
55441;PMS5003;41313;58.740;50.174;2022-08-02T02:48:43;10.25;10.25;6.25
55441;PMS5003;41313;58.740;50.174;2022-08-02T02:53:45;15.25;14.75;10.50
55441;PMS5003;41313;58.740;50.174;2022-08-02T02:58:49;73.00;57.67;34.00
55441;PMS5003;41313;58.740;50.174;2022-08-02T03:03:54;15.75;15.75;11.75
55441;PMS5003;41313;58.740;50.174;2022-08-02T03:08:58;12.00;12.00;7.75
55441;PMS5003;41313;58.740;50.174;2022-08-02T03:14:01;10.00;10.00;4.00
55441;PMS5003;41313;58.740;50.174;2022-08-02T03:19:04;10.25;10.25;8.00
55441;PMS5003;41313;58.740;50.174;2022-08-02T03:24:05;17.75;17.75;11.75
55441;PMS5003;41313;58.740;50.174;2022-08-02T03:29:08;15.25;15.25;12.00
55441;PMS5003;41313;58.740;50.174;2022-08-02T03:34:10;13.00;13.00;9.00
55441;PMS5003;41313;58.740;50.174;2022-08-02T03:39:12;13.50;13.50;7.75
55441;PMS5003;41313;58.740;50.174;2022-08-02T03:44:14;14.25;14.25;8.00
55441;PMS5003;41313;58.740;50.174;2022-08-02T03:49:16;10.75;10.75;7.25
55441;PMS5003;41313;58.740;50.174;2022-08-02T03:54:18;12.25;12.25;8.25
55441;PMS5003;41313;58.740;50.174;2022-08-02T03:59:19;16.25;16.25;11.25
55441;PMS5003;41313;58.740;50.174;2022-08-02T04:04:21;14.75;14.75;9.00
55441;PMS5003;41313;58.740;50.174;2022-08-02T04:09:23;12.75;12.75;8.00
55441;PMS5003;41313;58.740;50.174;2022-08-02T04:14:24;13.75;13.75;9.00
55441;PMS5003;41313;58.740;50.174;2022-08-02T04:19:31;19.50;18.50;13.00
55441;PMS5003;41313;58.740;50.174;2022-08-02T04:24:40;9.75;9.75;7.25
55441;PMS5003;41313;58.740;50.174;2022-08-02T04:29:48;11.75;11.75;7.25
55441;PMS5003;41313;58.740;50.174;2022-08-02T04:34:51;13.50;13.50;7.75
55441;PMS5003;41313;58.740;50.174;2022-08-02T04:39:54;19.00;19.00;13.50
55441;PMS5003;41313;58.740;50.174;2022-08-02T04:44:55;13.00;13.00;8.50
55441;PMS5003;41313;58.740;50.174;2022-08-02T04:49:57;23.75;23.75;17.25
55441;PMS5003;41313;58.740;50.174;2022-08-02T04:54:59;22.50;22.50;13.25
55441;PMS5003;41313;58.740;50.174;2022-08-02T05:00:01;76.00;67.00;40.33
55441;PMS5003;41313;58.740;50.174;2022-08-02T05:05:04;24.75;24.75;16.00
55441;PMS5003;41313;58.740;50.174;2022-08-02T05:10:06;23.00;23.00;16.00
55441;PMS5003;41313;58.740;50.174;2022-08-02T05:15:08;30.00;30.00;20.75
55441;PMS5003;41313;58.740;50.174;2022-08-02T05:20:12;21.75;21.75;14.25
55441;PMS5003;41313;58.740;50.174;2022-08-02T05:25:14;21.75;21.00;15.50
55441;PMS5003;41313;58.740;50.174;2022-08-02T05:30:15;25.00;23.25;14.00
55441;PMS5003;41313;58.740;50.174;2022-08-02T05:35:22;21.00;21.00;12.50
55441;PMS5003;41313;58.740;50.174;2022-08-02T05:40:24;23.00;23.00;16.00
55441;PMS5003;41313;58.740;50.174;2022-08-02T05:45:26;22.75;22.75;14.50
55441;PMS5003;41313;58.740;50.174;2022-08-02T05:50:27;72.67;60.67;36.00
55441;PMS5003;41313;58.740;50.174;2022-08-02T05:55:33;28.25;28.25;20.25
55441;PMS5003;41313;58.740;50.174;2022-08-02T06:00:39;25.00;24.50;15.50
55441;PMS5003;41313;58.740;50.174;2022-08-02T06:11:02;21.50;21.50;14.50
55441;PMS5003;41313;58.740;50.174;2022-08-02T06:16:06;23.50;23.50;18.25
55441;PMS5003;41313;58.740;50.174;2022-08-02T06:21:08;22.50;22.50;14.25
55441;PMS5003;41313;58.740;50.174;2022-08-02T06:26:10;31.50;30.25;16.50
55441;PMS5003;41313;58.740;50.174;2022-08-02T06:31:15;24.00;24.00;12.00
55441;PMS5003;41313;58.740;50.174;2022-08-02T06:41:41;24.25;24.25;17.25
55441;PMS5003;41313;58.740;50.174;2022-08-02T06:46:56;22.50;22.50;10.75
55441;PMS5003;41313;58.740;50.174;2022-08-02T06:51:58;33.25;32.25;20.25
55441;PMS5003;41313;58.740;50.174;2022-08-02T06:57:00;29.25;29.25;19.00
55441;PMS5003;41313;58.740;50.174;2022-08-02T07:02:02;45.25;38.25;24.50
55441;PMS5003;41313;58.740;50.174;2022-08-02T07:07:04;30.75;30.50;19.50
55441;PMS5003;41313;58.740;50.174;2022-08-02T07:12:05;38.00;35.00;22.00
55441;PMS5003;41313;58.740;50.174;2022-08-02T07:17:07;28.75;27.50;17.00
55441;PMS5003;41313;58.740;50.174;2022-08-02T07:22:08;34.50;33.00;22.00
55441;PMS5003;41313;58.740;50.174;2022-08-02T07:27:12;37.50;34.00;22.25
55441;PMS5003;41313;58.740;50.174;2022-08-02T07:32:17;28.00;28.00;19.00
55441;PMS5003;41313;58.740;50.174;2022-08-02T07:37:21;30.00;29.75;20.00
55441;PMS5003;41313;58.740;50.174;2022-08-02T07:42:24;25.75;25.25;16.50
55441;PMS5003;41313;58.740;50.174;2022-08-02T07:47:28;30.50;30.25;19.75
55441;PMS5003;41313;58.740;50.174;2022-08-02T07:52:30;25.50;25.50;18.50
55441;PMS5003;41313;58.740;50.174;2022-08-02T07:57:31;28.50;28.50;17.00
55441;PMS5003;41313;58.740;50.174;2022-08-02T08:02:33;29.25;29.25;17.25
55441;PMS5003;41313;58.740;50.174;2022-08-02T08:07:35;33.75;32.25;20.75
55441;PMS5003;41313;58.740;50.174;2022-08-02T08:12:37;28.75;28.50;17.75
55441;PMS5003;41313;58.740;50.174;2022-08-02T08:17:39;33.50;32.00;20.00
55441;PMS5003;41313;58.740;50.174;2022-08-02T08:22:40;28.50;28.50;18.25
55441;PMS5003;41313;58.740;50.174;2022-08-02T08:27:48;26.75;26.75;15.75
55441;PMS5003;41313;58.740;50.174;2022-08-02T08:32:52;40.25;35.75;24.25
55441;PMS5003;41313;58.740;50.174;2022-08-02T08:37:53;33.75;32.75;20.75
55441;PMS5003;41313;58.740;50.174;2022-08-02T08:42:55;29.50;29.50;19.50
55441;PMS5003;41313;58.740;50.174;2022-08-02T08:48:02;29.25;29.25;18.25
55441;PMS5003;41313;58.740;50.174;2022-08-02T08:53:08;35.25;33.00;20.75
55441;PMS5003;41313;58.740;50.174;2022-08-02T08:58:10;29.75;29.75;20.00
55441;PMS5003;41313;58.740;50.174;2022-08-02T09:03:12;30.25;30.25;18.25
55441;PMS5003;41313;58.740;50.174;2022-08-02T09:08:14;31.50;29.25;19.50
55441;PMS5003;41313;58.740;50.174;2022-08-02T09:13:19;31.25;30.50;19.75
55441;PMS5003;41313;58.740;50.174;2022-08-02T09:18:41;27.00;27.00;19.00
55441;PMS5003;41313;58.740;50.174;2022-08-02T09:23:46;28.50;28.50;19.75
55441;PMS5003;41313;58.740;50.174;2022-08-02T09:28:50;34.75;33.25;21.75
55441;PMS5003;41313;58.740;50.174;2022-08-02T09:33:54;52.33;44.33;27.33
55441;PMS5003;41313;58.740;50.174;2022-08-02T09:39:00;46.25;39.75;25.75
55441;PMS5003;41313;58.740;50.174;2022-08-02T09:44:04;32.75;31.50;22.00
55441;PMS5003;41313;58.740;50.174;2022-08-02T09:49:10;35.00;32.50;22.00
55441;PMS5003;41313;58.740;50.174;2022-08-02T09:59:24;26.25;26.25;19.00
55441;PMS5003;41313;58.740;50.174;2022-08-02T10:04:27;26.50;25.75;18.25
55441;PMS5003;41313;58.740;50.174;2022-08-02T10:09:30;27.25;27.25;18.75
55441;PMS5003;41313;58.740;50.174;2022-08-02T10:14:33;26.75;26.75;19.00
55441;PMS5003;41313;58.740;50.174;2022-08-02T10:19:35;25.50;25.50;16.00
55441;PMS5003;41313;58.740;50.174;2022-08-02T10:24:37;26.75;26.75;18.00
55441;PMS5003;41313;58.740;50.174;2022-08-02T10:29:39;26.25;26.00;16.00
55441;PMS5003;41313;58.740;50.174;2022-08-02T10:34:50;22.50;22.50;15.50
55441;PMS5003;41313;58.740;50.174;2022-08-02T10:40:11;26.25;26.25;19.50
55441;PMS5003;41313;58.740;50.174;2022-08-02T10:45:26;23.00;23.00;18.25
55441;PMS5003;41313;58.740;50.174;2022-08-02T10:55:46;22.50;22.50;16.00
55441;PMS5003;41313;58.740;50.174;2022-08-02T11:00:48;20.75;20.75;14.25
55441;PMS5003;41313;58.740;50.174;2022-08-02T11:06:00;23.25;23.25;15.50
55441;PMS5003;41313;58.740;50.174;2022-08-02T11:16:18;26.00;26.00;17.00
55441;PMS5003;41313;58.740;50.174;2022-08-02T11:21:21;26.75;26.75;18.00
55441;PMS5003;41313;58.740;50.174;2022-08-02T11:31:40;21.00;21.00;15.00
55441;PMS5003;41313;58.740;50.174;2022-08-02T11:36:48;20.25;20.25;14.25
55441;PMS5003;41313;58.740;50.174;2022-08-02T11:41:52;24.25;24.25;15.75
55441;PMS5003;41313;58.740;50.174;2022-08-02T11:46:58;23.00;23.00;15.75
55441;PMS5003;41313;58.740;50.174;2022-08-02T11:52:02;23.25;23.25;16.75
55441;PMS5003;41313;58.740;50.174;2022-08-02T11:57:10;24.25;24.25;16.75
55441;PMS5003;41313;58.740;50.174;2022-08-02T12:02:17;27.25;27.25;19.00
55441;PMS5003;41313;58.740;50.174;2022-08-02T12:07:27;22.00;22.00;13.50
55441;PMS5003;41313;58.740;50.174;2022-08-02T12:12:31;37.50;34.00;23.00
55441;PMS5003;41313;58.740;50.174;2022-08-02T12:17:33;19.75;19.75;12.00
55441;PMS5003;41313;58.740;50.174;2022-08-02T12:22:53;18.25;18.00;12.75
55441;PMS5003;41313;58.740;50.174;2022-08-02T12:28:06;25.75;25.75;16.25
55441;PMS5003;41313;58.740;50.174;2022-08-02T12:33:13;20.00;20.00;11.75
55441;PMS5003;41313;58.740;50.174;2022-08-02T12:38:15;19.25;18.25;11.00
55441;PMS5003;41313;58.740;50.174;2022-08-02T12:43:18;68.33;55.33;31.67
55441;PMS5003;41313;58.740;50.174;2022-08-02T12:48:32;17.00;17.00;11.50
55441;PMS5003;41313;58.740;50.174;2022-08-02T12:53:35;18.50;18.50;12.25
55441;PMS5003;41313;58.740;50.174;2022-08-02T12:58:49;64.67;52.67;33.00
55441;PMS5003;41313;58.740;50.174;2022-08-02T13:03:52;23.50;23.50;16.00
55441;PMS5003;41313;58.740;50.174;2022-08-02T13:08:55;27.00;27.00;17.25
55441;PMS5003;41313;58.740;50.174;2022-08-02T13:13:58;23.25;23.25;15.50
55441;PMS5003;41313;58.740;50.174;2022-08-02T13:18:59;26.50;26.00;18.25
55441;PMS5003;41313;58.740;50.174;2022-08-02T13:24:01;24.00;24.00;16.00
55441;PMS5003;41313;58.740;50.174;2022-08-02T13:29:02;21.00;20.00;9.75
55441;PMS5003;41313;58.740;50.174;2022-08-02T13:34:04;23.00;23.00;14.75
55441;PMS5003;41313;58.740;50.174;2022-08-02T13:39:06;34.75;32.25;21.75
55441;PMS5003;41313;58.740;50.174;2022-08-02T13:44:09;24.25;23.25;16.25
55441;PMS5003;41313;58.740;50.174;2022-08-02T13:49:11;21.50;21.50;14.25
55441;PMS5003;41313;58.740;50.174;2022-08-02T13:54:13;25.50;25.00;16.75
55441;PMS5003;41313;58.740;50.174;2022-08-02T13:59:15;27.75;27.75;19.25
55441;PMS5003;41313;58.740;50.174;2022-08-02T14:04:17;23.25;22.50;15.00
55441;PMS5003;41313;58.740;50.174;2022-08-02T14:09:18;24.50;24.50;16.25
55441;PMS5003;41313;58.740;50.174;2022-08-02T14:14:21;24.25;24.25;16.25
55441;PMS5003;41313;58.740;50.174;2022-08-02T14:19:22;23.50;23.50;16.50
55441;PMS5003;41313;58.740;50.174;2022-08-02T14:24:24;45.00;38.50;24.50
55441;PMS5003;41313;58.740;50.174;2022-08-02T14:29:34;21.50;21.50;16.00
55441;PMS5003;41313;58.740;50.174;2022-08-02T14:34:36;25.25;25.25;18.00
55441;PMS5003;41313;58.740;50.174;2022-08-02T14:39:37;28.00;27.00;17.25
55441;PMS5003;41313;58.740;50.174;2022-08-02T14:44:39;25.50;25.50;18.00
55441;PMS5003;41313;58.740;50.174;2022-08-02T14:49:40;21.75;21.75;15.50
55441;PMS5003;41313;58.740;50.174;2022-08-02T14:54:42;23.00;23.00;13.50
55441;PMS5003;41313;58.740;50.174;2022-08-02T14:59:43;27.00;27.00;19.50
55441;PMS5003;41313;58.740;50.174;2022-08-02T15:04:44;29.50;29.50;19.00
55441;PMS5003;41313;58.740;50.174;2022-08-02T15:09:46;30.25;30.00;18.75
55441;PMS5003;41313;58.740;50.174;2022-08-02T15:14:48;23.25;22.75;17.25
55441;PMS5003;41313;58.740;50.174;2022-08-02T15:19:49;31.75;31.00;18.50
55441;PMS5003;41313;58.740;50.174;2022-08-02T15:24:51;44.50;39.25;23.25
55441;PMS5003;41313;58.740;50.174;2022-08-02T15:29:52;52.33;44.33;28.67
55441;PMS5003;41313;58.740;50.174;2022-08-02T15:34:59;52.67;44.00;29.00
55441;PMS5003;41313;58.740;50.174;2022-08-02T15:40:01;33.25;31.75;19.75
55441;PMS5003;41313;58.740;50.174;2022-08-02T15:45:04;32.00;30.75;20.00
55441;PMS5003;41313;58.740;50.174;2022-08-02T15:50:06;32.75;31.75;22.75
55441;PMS5003;41313;58.740;50.174;2022-08-02T15:55:08;25.25;25.25;18.00
55441;PMS5003;41313;58.740;50.174;2022-08-02T16:00:11;29.25;29.25;19.00
55441;PMS5003;41313;58.740;50.174;2022-08-02T16:05:14;36.50;33.50;20.75
55441;PMS5003;41313;58.740;50.174;2022-08-02T16:10:18;30.50;29.75;19.50
55441;PMS5003;41313;58.740;50.174;2022-08-02T16:15:19;31.75;31.00;21.25
55441;PMS5003;41313;58.740;50.174;2022-08-02T16:20:21;39.50;35.75;23.00
55441;PMS5003;41313;58.740;50.174;2022-08-02T16:25:23;58.33;49.00;30.67
55441;PMS5003;41313;58.740;50.174;2022-08-02T16:30:24;48.00;40.67;25.33
55441;PMS5003;41313;58.740;50.174;2022-08-02T16:35:26;63.33;51.67;31.67
55441;PMS5003;41313;58.740;50.174;2022-08-02T16:40:27;42.25;38.00;23.50
55441;PMS5003;41313;58.740;50.174;2022-08-02T16:45:30;57.67;46.33;28.67
55441;PMS5003;41313;58.740;50.174;2022-08-02T16:50:32;165.75;150.75;71.25
55441;PMS5003;41313;58.740;50.174;2022-08-02T16:55:33;147.00;138.00;68.75
55441;PMS5003;41313;58.740;50.174;2022-08-02T17:00:36;112.00;102.00;53.50
55441;PMS5003;41313;58.740;50.174;2022-08-02T17:05:38;104.50;95.00;51.50
55441;PMS5003;41313;58.740;50.174;2022-08-02T17:10:41;83.00;79.33;43.67
55441;PMS5003;41313;58.740;50.174;2022-08-02T17:15:42;73.67;62.00;35.00
55441;PMS5003;41313;58.740;50.174;2022-08-02T17:20:44;69.67;56.33;35.00
55441;PMS5003;41313;58.740;50.174;2022-08-02T17:25:45;68.33;54.67;31.67
55441;PMS5003;41313;58.740;50.174;2022-08-02T17:30:47;66.67;53.00;33.00
55441;PMS5003;41313;58.740;50.174;2022-08-02T17:35:51;63.00;51.00;31.67
55441;PMS5003;41313;58.740;50.174;2022-08-02T17:40:55;60.33;50.00;31.00
55441;PMS5003;41313;58.740;50.174;2022-08-02T17:45:57;58.33;48.00;31.00
55441;PMS5003;41313;58.740;50.174;2022-08-02T17:50:59;57.33;48.33;30.00
55441;PMS5003;41313;58.740;50.174;2022-08-02T17:56:00;55.00;47.00;29.33
55441;PMS5003;41313;58.740;50.174;2022-08-02T18:01:11;58.33;47.67;30.00
55441;PMS5003;41313;58.740;50.174;2022-08-02T18:06:12;60.00;49.33;31.00
55441;PMS5003;41313;58.740;50.174;2022-08-02T18:11:13;61.67;51.00;32.00
55441;PMS5003;41313;58.740;50.174;2022-08-02T18:16:15;56.67;47.33;30.00
55441;PMS5003;41313;58.740;50.174;2022-08-02T18:21:16;54.33;45.67;27.33
55441;PMS5003;41313;58.740;50.174;2022-08-02T18:26:18;59.00;49.00;30.33
55441;PMS5003;41313;58.740;50.174;2022-08-02T18:31:19;54.33;46.00;28.67
55441;PMS5003;41313;58.740;50.174;2022-08-02T18:36:22;55.33;46.67;26.67
55441;PMS5003;41313;58.740;50.174;2022-08-02T18:41:24;56.00;47.00;26.33
55441;PMS5003;41313;58.740;50.174;2022-08-02T18:46:25;54.00;46.00;26.67
55441;PMS5003;41313;58.740;50.174;2022-08-02T18:51:27;58.33;49.00;28.33
55441;PMS5003;41313;58.740;50.174;2022-08-02T18:56:29;56.00;47.00;28.67
55441;PMS5003;41313;58.740;50.174;2022-08-02T19:01:31;61.67;48.33;29.67
55441;PMS5003;41313;58.740;50.174;2022-08-02T19:06:32;58.67;49.33;30.67
55441;PMS5003;41313;58.740;50.174;2022-08-02T19:11:34;56.33;46.33;29.00
55441;PMS5003;41313;58.740;50.174;2022-08-02T19:16:35;48.33;40.33;24.67
55441;PMS5003;41313;58.740;50.174;2022-08-02T19:21:37;51.00;43.33;26.00
55441;PMS5003;41313;58.740;50.174;2022-08-02T19:26:38;51.00;43.33;28.00
55441;PMS5003;41313;58.740;50.174;2022-08-02T19:31:40;54.00;46.33;29.00
55441;PMS5003;41313;58.740;50.174;2022-08-02T19:36:42;54.67;45.67;27.00
55441;PMS5003;41313;58.740;50.174;2022-08-02T19:41:43;55.33;47.00;27.33
55441;PMS5003;41313;58.740;50.174;2022-08-02T19:46:45;51.33;44.00;27.33
55441;PMS5003;41313;58.740;50.174;2022-08-02T19:51:46;52.67;44.67;27.67
55441;PMS5003;41313;58.740;50.174;2022-08-02T19:56:49;50.00;43.67;27.33
55441;PMS5003;41313;58.740;50.174;2022-08-02T20:01:50;47.00;41.00;27.00
55441;PMS5003;41313;58.740;50.174;2022-08-02T20:06:53;48.67;42.33;27.33
55441;PMS5003;41313;58.740;50.174;2022-08-02T20:11:54;50.33;42.67;27.00
55441;PMS5003;41313;58.740;50.174;2022-08-02T20:16:55;50.33;43.67;27.00
55441;PMS5003;41313;58.740;50.174;2022-08-02T20:21:57;48.00;41.67;27.00
55441;PMS5003;41313;58.740;50.174;2022-08-02T20:26:59;42.33;37.67;21.67
55441;PMS5003;41313;58.740;50.174;2022-08-02T20:32:02;41.00;37.33;24.67
55441;PMS5003;41313;58.740;50.174;2022-08-02T20:37:04;44.33;39.00;26.00
55441;PMS5003;41313;58.740;50.174;2022-08-02T20:42:06;42.67;41.33;25.00
55441;PMS5003;41313;58.740;50.174;2022-08-02T20:47:08;43.33;39.33;24.00
55441;PMS5003;41313;58.740;50.174;2022-08-02T20:52:09;41.00;38.67;23.67
55441;PMS5003;41313;58.740;50.174;2022-08-02T20:57:11;48.67;42.67;25.00
55441;PMS5003;41313;58.740;50.174;2022-08-02T21:02:12;50.00;43.00;26.00
55441;PMS5003;41313;58.740;50.174;2022-08-02T21:07:14;40.00;38.00;25.67
55441;PMS5003;41313;58.740;50.174;2022-08-02T21:12:15;40.00;37.33;21.67
55441;PMS5003;41313;58.740;50.174;2022-08-02T21:17:17;39.00;36.67;24.00
55441;PMS5003;41313;58.740;50.174;2022-08-02T21:22:19;38.00;37.33;24.00
55441;PMS5003;41313;58.740;50.174;2022-08-02T21:27:21;34.67;34.67;25.00
55441;PMS5003;41313;58.740;50.174;2022-08-02T21:32:23;43.00;39.67;23.67
55441;PMS5003;41313;58.740;50.174;2022-08-02T21:37:26;43.00;38.33;22.67
55441;PMS5003;41313;58.740;50.174;2022-08-02T21:42:27;38.33;36.00;22.67
55441;PMS5003;41313;58.740;50.174;2022-08-02T21:47:29;41.67;37.67;23.67
55441;PMS5003;41313;58.740;50.174;2022-08-02T21:52:31;40.33;36.67;19.00
55441;PMS5003;41313;58.740;50.174;2022-08-02T21:57:33;41.00;37.67;24.67
55441;PMS5003;41313;58.740;50.174;2022-08-02T22:02:34;41.33;37.00;22.33
55441;PMS5003;41313;58.740;50.174;2022-08-02T22:07:36;37.00;35.00;21.00
55441;PMS5003;41313;58.740;50.174;2022-08-02T22:12:37;40.33;37.00;23.00
55441;PMS5003;41313;58.740;50.174;2022-08-02T22:17:39;37.33;35.67;21.00
55441;PMS5003;41313;58.740;50.174;2022-08-02T22:22:41;22.67;22.67;13.00
55441;PMS5003;41313;58.740;50.174;2022-08-02T22:27:43;36.00;35.67;20.67
55441;PMS5003;41313;58.740;50.174;2022-08-02T22:32:44;44.33;40.00;23.00
55441;PMS5003;41313;58.740;50.174;2022-08-02T22:38:05;34.00;33.67;21.33
55441;PMS5003;41313;58.740;50.174;2022-08-02T22:43:06;32.00;29.00;21.67
55441;PMS5003;41313;58.740;50.174;2022-08-02T22:48:08;37.67;35.00;21.33
55441;PMS5003;41313;58.740;50.174;2022-08-02T22:53:09;33.33;33.33;19.33
55441;PMS5003;41313;58.740;50.174;2022-08-02T22:58:11;35.33;33.67;21.00
55441;PMS5003;41313;58.740;50.174;2022-08-02T23:03:13;46.00;42.33;26.00
55441;PMS5003;41313;58.740;50.174;2022-08-02T23:08:14;38.33;36.67;25.33
55441;PMS5003;41313;58.740;50.174;2022-08-02T23:13:17;41.67;36.67;23.33
55441;PMS5003;41313;58.740;50.174;2022-08-02T23:18:18;39.33;39.00;24.67
55441;PMS5003;41313;58.740;50.174;2022-08-02T23:23:38;33.67;32.67;19.00
55441;PMS5003;41313;58.740;50.174;2022-08-02T23:28:40;36.67;34.67;19.00
55441;PMS5003;41313;58.740;50.174;2022-08-02T23:33:42;35.33;35.33;24.00
55441;PMS5003;41313;58.740;50.174;2022-08-02T23:38:43;31.00;30.33;21.00
55441;PMS5003;41313;58.740;50.174;2022-08-02T23:43:45;33.00;33.00;18.67
55441;PMS5003;41313;58.740;50.174;2022-08-02T23:48:47;37.33;34.67;16.00
55441;PMS5003;41313;58.740;50.174;2022-08-02T23:53:49;31.00;31.00;20.67
55441;PMS5003;41313;58.740;50.174;2022-08-02T23:58:51;36.00;33.67;20.67
